Ana Sayfa
METAR-TAF:

METAR-TAF

Havaalanları :

Gazipaşa Havalimanı

Gazipaşa, Türkiye

Enlem: 36-17-56N, Boylam: 32-18-00E, yükseklik: 15 m

Güncel hava durumu gözlemi

Rapor saat 19:50 UTC de 56 dakika önce yapıldı.
Rüzgar doğudan 5 kt
Sıcaklık 21°C
Nem 78%
Basınç 1013 hPa
Görüş mesafesi 10 km veya daha fazla
1500 m altında bulut yok ve kümülonimbus yok

METAR: LTFG 231950Z 09005KT CAVOK 21/17 Q1013

Saat: 23:46 (20:46 UTC)

Tahmin

Rapor saat 19:40 UTC de 1 saat ve 6 dakika önce yapıldı.
Ayın 23'si saat 21 UTC'den ayın 24'si saat 06 UTC'ye kadar geçerli Tahmin
Rüzgar değişken yönden 2 kt
Görüş mesafesi 10 km veya daha fazla
1500 m altında bulut yok ve kümülonimbus yok

TAF: LTFG 231940Z 2321/2406 VRB02KT CAVOK

4.000'den fazla havaalanı için hava durumu gözlemleri ve tahminleri (METAR ve TAF raporları).

Kullanılabilir istasyonlar harita üzerinde sarı ve kırmızı noktalarla gösterilir.

İstasyonun adını görmek için fareyi noktanın üzerinde gezdirin.

Sonrasında hava gözlem ve tahminlerini görmek için tıklayın.

Haritayı değiştirmek için: yaklaştırmak için siyah artı işaretli yeşil düğmeye ve uzaklaştırmak için de eksi işaretli düğmeye hızla tıklayın; bitişik haritalar için yeşil okları kullanın.


METAR-TAF: